createdAt,value
2023-07-29T00:00:10.497Z,12.38
2023-07-29T00:03:02.085Z,12.40
2023-07-29T00:05:29.788Z,12.32
2023-07-29T00:07:57.227Z,12.32
2023-07-29T00:10:24.596Z,12.22
2023-07-29T00:12:51.827Z,12.13
2023-07-29T00:15:20.065Z,12.27
2023-07-29T00:17:47.297Z,13.20
2023-07-29T00:20:14.912Z,13.52
2023-07-29T00:22:42.367Z,13.78
2023-07-29T00:25:09.808Z,13.94
2023-07-29T00:27:37.192Z,14.11
2023-07-29T00:30:05.876Z,14.03
2023-07-29T00:32:33.273Z,13.98
2023-07-29T00:35:02.107Z,14.01
2023-07-29T00:37:31.166Z,14.08
2023-07-29T00:39:59.358Z,14.00
2023-07-29T00:42:26.500Z,14.08
2023-07-29T00:44:53.877Z,14.10
2023-07-29T00:47:22.795Z,13.68
2023-07-29T00:49:52.422Z,13.61
2023-07-29T00:52:19.624Z,13.55
2023-07-29T00:54:47.299Z,13.42
2023-07-29T00:57:16.478Z,13.42
2023-07-29T00:59:44.485Z,13.17
2023-07-29T01:02:11.808Z,12.95
2023-07-29T01:04:39.402Z,12.87
2023-07-29T01:07:48.126Z,12.73
2023-07-29T01:10:36.907Z,12.66
2023-07-29T01:13:27.935Z,13.17
2023-07-29T01:16:07.432Z,13.44
2023-07-29T01:18:37.773Z,13.46
2023-07-29T01:21:08.284Z,13.47
2023-07-29T01:23:36.704Z,13.44
2023-07-29T01:26:04.693Z,13.49
2023-07-29T01:28:32.651Z,13.48
2023-07-29T01:31:13.442Z,13.48
2023-07-29T01:33:45.642Z,13.42
2023-07-29T01:36:19.865Z,13.48
2023-07-29T01:38:49.413Z,13.44
2023-07-29T01:41:18.764Z,13.42
2023-07-29T01:43:47.641Z,13.48
2023-07-29T01:46:16.188Z,13.39
2023-07-29T01:48:43.852Z,13.44
2023-07-29T01:51:13.476Z,13.37
2023-07-29T01:53:40.579Z,13.41
2023-07-29T01:56:07.953Z,13.35
2023-07-29T01:58:37.837Z,13.22
2023-07-29T02:01:05.435Z,13.27
2023-07-29T02:03:32.819Z,13.41
2023-07-29T02:06:00.461Z,13.29
2023-07-29T02:08:27.970Z,13.22
2023-07-29T02:10:55.597Z,13.25
2023-07-29T02:13:22.884Z,13.21
2023-07-29T02:15:50.524Z,13.20
2023-07-29T02:18:17.847Z,13.23
2023-07-29T02:20:50.336Z,13.27
2023-07-29T02:23:20.827Z,13.26
2023-07-29T02:25:48.477Z,13.29
2023-07-29T02:28:15.743Z,13.17
2023-07-29T02:30:45.730Z,13.00
2023-07-29T02:33:12.980Z,12.99
2023-07-29T02:35:40.469Z,12.97
2023-07-29T02:38:07.938Z,13.10
2023-07-29T02:40:35.435Z,13.00
2023-07-29T02:43:02.651Z,12.98
2023-07-29T02:45:30.267Z,12.92
2023-07-29T02:47:57.424Z,13.09
2023-07-29T02:50:24.947Z,13.17
2023-07-29T02:52:53.191Z,13.09
2023-07-29T02:55:20.706Z,12.98
2023-07-29T02:57:47.949Z,13.03
2023-07-29T03:00:16.352Z,13.04
2023-07-29T03:02:43.687Z,13.04
2023-07-29T03:05:11.675Z,13.22
2023-07-29T03:07:38.990Z,13.29
2023-07-29T03:10:07.548Z,13.39
2023-07-29T03:12:34.782Z,13.32
2023-07-29T03:15:02.400Z,13.31
2023-07-29T03:17:30.765Z,13.41
2023-07-29T03:19:58.441Z,13.63
2023-07-29T03:22:25.709Z,13.49
2023-07-29T03:24:53.260Z,13.70
2023-07-29T03:27:20.384Z,13.69
2023-07-29T03:29:47.777Z,13.86
2023-07-29T03:32:14.901Z,14.05
2023-07-29T03:34:42.416Z,14.19
2023-07-29T03:37:09.773Z,14.23
2023-07-29T03:39:37.353Z,13.87
2023-07-29T03:42:04.703Z,13.67
2023-07-29T03:44:32.830Z,13.81
2023-07-29T03:46:59.957Z,13.89
2023-07-29T03:49:27.331Z,13.67
2023-07-29T03:51:54.464Z,13.82
2023-07-29T03:54:21.799Z,13.78
2023-07-29T03:56:48.919Z,13.94
2023-07-29T03:59:16.406Z,13.98
2023-07-29T04:01:43.637Z,14.01
2023-07-29T04:04:17.728Z,14.13
2023-07-29T04:06:45.005Z,14.15
2023-07-29T04:09:12.330Z,14.38
2023-07-29T04:11:39.437Z,14.49
2023-07-29T04:14:06.808Z,14.38
2023-07-29T04:16:34.103Z,14.60
2023-07-29T04:19:01.634Z,14.48
2023-07-29T04:21:29.248Z,14.49
2023-07-29T04:23:56.600Z,14.71
2023-07-29T04:26:23.687Z,14.90
2023-07-29T04:28:51.154Z,15.04
2023-07-29T04:31:18.326Z,15.08
2023-07-29T04:33:45.641Z,15.09
2023-07-29T04:36:12.744Z,15.27
2023-07-29T04:38:40.670Z,15.35
2023-07-29T04:41:10.109Z,15.41
2023-07-29T04:43:37.687Z,15.65
2023-07-29T04:46:08.997Z,15.70
2023-07-29T04:48:38.205Z,15.88
2023-07-29T04:51:05.305Z,15.98
2023-07-29T04:53:32.709Z,15.97
2023-07-29T04:56:00.671Z,16.01
2023-07-29T04:58:30.061Z,16.23
2023-07-29T05:00:59.059Z,16.36
2023-07-29T05:03:26.510Z,16.51
2023-07-29T05:05:55.849Z,16.42
2023-07-29T05:08:23.282Z,16.57
2023-07-29T05:10:51.354Z,16.68
2023-07-29T05:13:18.965Z,16.79
2023-07-29T05:15:46.327Z,16.79
2023-07-29T05:18:13.812Z,16.96
2023-07-29T05:20:41.317Z,16.88
2023-07-29T05:23:08.863Z,16.87
2023-07-29T05:25:36.368Z,16.96
2023-07-29T05:28:04.661Z,17.00
2023-07-29T05:30:38.335Z,16.97
2023-07-29T05:33:09.709Z,17.05
2023-07-29T05:35:36.943Z,17.10
2023-07-29T05:38:06.360Z,17.26
2023-07-29T05:40:33.546Z,17.41
2023-07-29T05:43:01.025Z,17.45
2023-07-29T05:45:28.302Z,17.37
2023-07-29T05:47:55.884Z,17.64
2023-07-29T05:50:24.178Z,17.82
2023-07-29T05:52:51.557Z,17.61
2023-07-29T05:55:18.654Z,17.84
2023-07-29T05:57:46.071Z,17.92
2023-07-29T06:00:13.798Z,18.07
2023-07-29T06:02:44.059Z,18.24
2023-07-29T06:05:16.174Z,18.23
2023-07-29T06:07:46.121Z,18.55
2023-07-29T06:10:18.792Z,18.61
2023-07-29T06:12:47.788Z,18.70
2023-07-29T06:15:15.895Z,18.73
2023-07-29T06:17:43.525Z,18.86
2023-07-29T06:20:11.240Z,19.22
2023-07-29T06:22:38.760Z,19.20
2023-07-29T06:25:06.005Z,19.31
2023-07-29T06:27:33.555Z,19.16
2023-07-29T06:30:00.766Z,19.16
2023-07-29T06:32:28.259Z,19.27
2023-07-29T06:34:55.675Z,19.44
2023-07-29T06:37:23.389Z,19.48
2023-07-29T06:39:50.422Z,19.65
2023-07-29T06:42:17.902Z,19.67
2023-07-29T06:44:47.033Z,19.77
2023-07-29T06:47:14.429Z,19.99
2023-07-29T06:49:41.557Z,20.30
2023-07-29T06:52:09.104Z,20.04
2023-07-29T06:54:36.262Z,20.19
2023-07-29T06:57:03.799Z,20.40
2023-07-29T06:59:30.820Z,20.51
2023-07-29T07:01:58.434Z,20.48
2023-07-29T07:04:25.868Z,20.63
2023-07-29T07:06:53.271Z,20.66
2023-07-29T07:09:20.846Z,20.65
2023-07-29T07:11:48.251Z,20.71
2023-07-29T07:14:15.583Z,20.92
2023-07-29T07:16:43.018Z,21.01
2023-07-29T07:19:10.140Z,20.93
2023-07-29T07:21:37.464Z,21.00
2023-07-29T07:24:04.723Z,21.22
2023-07-29T07:26:32.368Z,21.29
2023-07-29T07:29:00.234Z,21.16
2023-07-29T07:31:29.995Z,21.27
2023-07-29T07:33:57.927Z,21.37
2023-07-29T07:36:25.900Z,21.55
2023-07-29T07:38:54.253Z,21.45
2023-07-29T07:41:23.600Z,21.82
2023-07-29T07:43:52.098Z,21.62
2023-07-29T07:46:20.119Z,21.73
2023-07-29T07:48:50.357Z,21.63
2023-07-29T07:51:22.599Z,21.38
2023-07-29T07:53:50.308Z,21.85
2023-07-29T07:56:18.203Z,21.69
2023-07-29T07:58:46.072Z,22.10
2023-07-29T08:01:14.218Z,21.97
2023-07-29T08:03:43.005Z,22.23
2023-07-29T08:06:11.219Z,21.91
2023-07-29T08:08:38.982Z,22.42
2023-07-29T08:11:06.979Z,22.41
2023-07-29T08:13:34.866Z,22.06
2023-07-29T08:16:02.961Z,21.87
2023-07-29T08:18:30.823Z,22.24
2023-07-29T08:21:00.605Z,21.97
2023-07-29T08:23:28.642Z,21.91
2023-07-29T08:26:02.730Z,22.12
2023-07-29T08:28:35.716Z,22.05
2023-07-29T08:31:03.575Z,22.68
2023-07-29T08:33:31.644Z,22.01
2023-07-29T08:35:59.478Z,22.18
2023-07-29T08:38:29.372Z,22.51
2023-07-29T08:41:11.737Z,22.49
2023-07-29T08:43:43.242Z,22.49
2023-07-29T08:46:11.494Z,22.73
2023-07-29T08:48:45.250Z,22.49
2023-07-29T08:51:13.348Z,22.58
2023-07-29T08:53:41.033Z,22.66
2023-07-29T08:56:09.141Z,23.13
2023-07-29T08:58:37.187Z,22.95
2023-07-29T09:01:04.727Z,22.59
2023-07-29T09:03:32.106Z,23.21
2023-07-29T09:06:00.429Z,23.35
2023-07-29T09:08:28.488Z,22.88
2023-07-29T09:10:56.774Z,23.42
2023-07-29T09:13:24.111Z,23.12
2023-07-29T09:15:56.938Z,23.23
2023-07-29T09:18:26.884Z,23.07
2023-07-29T09:20:54.549Z,23.49
2023-07-29T09:23:22.093Z,23.61
2023-07-29T09:25:50.419Z,23.74
2023-07-29T09:28:18.065Z,23.60
2023-07-29T09:30:47.968Z,23.62
2023-07-29T09:33:15.473Z,23.53
2023-07-29T09:35:43.239Z,24.20
2023-07-29T09:38:16.398Z,23.47
2023-07-29T09:40:46.536Z,23.69
2023-07-29T09:43:14.425Z,23.65
2023-07-29T09:45:42.237Z,24.21
2023-07-29T09:48:11.447Z,24.20
2023-07-29T09:50:38.923Z,24.02
2023-07-29T09:53:08.408Z,23.76
2023-07-29T09:55:36.164Z,23.65
2023-07-29T09:58:05.371Z,24.30
2023-07-29T10:00:33.729Z,24.11
2023-07-29T10:03:02.144Z,24.05
2023-07-29T10:05:31.164Z,24.60
2023-07-29T10:07:58.792Z,24.59
2023-07-29T10:10:28.698Z,24.38
2023-07-29T10:12:57.783Z,24.62
2023-07-29T10:15:26.763Z,24.08
2023-07-29T10:17:54.783Z,24.99
2023-07-29T10:20:22.796Z,24.61
2023-07-29T10:22:53.293Z,24.58
2023-07-29T10:25:24.252Z,24.77
2023-07-29T10:28:04.746Z,24.59
2023-07-29T10:30:33.259Z,24.64
2023-07-29T10:33:04.982Z,24.43
2023-07-29T10:35:34.899Z,24.90
2023-07-29T10:38:03.318Z,24.95
2023-07-29T10:40:48.708Z,25.16
2023-07-29T10:43:25.343Z,24.89
2023-07-29T10:46:02.656Z,25.17
2023-07-29T10:48:44.552Z,25.56
2023-07-29T10:51:31.246Z,25.82
2023-07-29T10:54:11.099Z,25.06
2023-07-29T10:56:42.778Z,25.61
2023-07-29T10:59:13.193Z,25.30
2023-07-29T11:01:45.119Z,25.63
2023-07-29T11:04:21.837Z,25.21
2023-07-29T11:07:04.595Z,25.37
2023-07-29T11:09:56.731Z,25.48
2023-07-29T11:12:51.615Z,25.76
2023-07-29T11:15:51.750Z,25.44
2023-07-29T11:18:22.726Z,25.11
2023-07-29T11:20:50.987Z,25.35
2023-07-29T11:23:19.650Z,25.05
2023-07-29T11:25:46.956Z,25.52
2023-07-29T11:28:14.462Z,26.72
2023-07-29T11:30:41.774Z,26.04
2023-07-29T11:33:09.565Z,25.71
2023-07-29T11:35:36.758Z,26.00
2023-07-29T11:38:04.995Z,26.60
2023-07-29T11:40:32.152Z,26.21
2023-07-29T11:42:59.602Z,26.11
2023-07-29T11:45:35.855Z,25.61
2023-07-29T11:48:14.086Z,25.19
2023-07-29T11:50:41.423Z,25.02
2023-07-29T11:53:09.083Z,24.93
2023-07-29T11:55:36.386Z,25.34
2023-07-29T11:58:04.431Z,25.15
2023-07-29T12:00:32.660Z,25.67
2023-07-29T12:03:01.382Z,25.40
2023-07-29T12:05:29.015Z,25.67
2023-07-29T12:07:56.815Z,26.41
2023-07-29T12:10:24.340Z,25.55
2023-07-29T12:12:52.529Z,26.58
2023-07-29T12:15:32.082Z,25.51
2023-07-29T12:18:03.602Z,25.63
2023-07-29T12:20:32.566Z,25.27
2023-07-29T12:23:33.445Z,25.52
2023-07-29T12:26:01.992Z,26.72
2023-07-29T12:28:30.111Z,26.51
2023-07-29T12:30:58.795Z,25.79
2023-07-29T12:33:37.268Z,25.31
2023-07-29T12:36:04.731Z,25.10
2023-07-29T12:38:37.411Z,26.55
2023-07-29T12:41:05.143Z,26.11
2023-07-29T12:43:32.876Z,25.08
2023-07-29T12:46:00.242Z,25.14
2023-07-29T12:48:27.765Z,25.05
2023-07-29T12:50:55.196Z,25.20
2023-07-29T12:53:22.783Z,24.84
2023-07-29T12:55:49.906Z,25.16
2023-07-29T12:58:17.511Z,24.99
2023-07-29T13:00:44.880Z,24.89
2023-07-29T13:03:12.383Z,24.84
2023-07-29T13:05:40.053Z,25.52
2023-07-29T13:08:07.608Z,26.23
2023-07-29T13:10:34.918Z,26.26
2023-07-29T13:13:02.494Z,26.55
2023-07-29T13:15:29.696Z,26.36
2023-07-29T13:17:57.192Z,26.60
2023-07-29T13:20:24.548Z,26.73
2023-07-29T13:22:52.286Z,26.39
2023-07-29T13:25:19.642Z,27.24
2023-07-29T13:27:47.459Z,27.37
2023-07-29T13:30:15.178Z,26.65
2023-07-29T13:32:43.372Z,26.55
2023-07-29T13:35:10.679Z,26.60
2023-07-29T13:37:38.391Z,27.44
2023-07-29T13:40:06.503Z,27.81
2023-07-29T13:42:34.021Z,27.19
2023-07-29T13:45:01.937Z,27.12
2023-07-29T13:47:29.544Z,27.19
2023-07-29T13:49:56.719Z,27.67
2023-07-29T13:52:24.192Z,28.16
2023-07-29T13:54:51.671Z,28.06
2023-07-29T13:57:19.435Z,28.13
2023-07-29T13:59:46.930Z,27.66
2023-07-29T14:02:15.015Z,27.52
2023-07-29T14:04:42.553Z,26.99
2023-07-29T14:07:10.280Z,27.33
2023-07-29T14:09:38.484Z,27.10
2023-07-29T14:12:06.830Z,27.59
2023-07-29T14:14:34.349Z,28.15
2023-07-29T14:17:03.088Z,27.41
2023-07-29T14:19:31.430Z,27.60
2023-07-29T14:21:59.376Z,27.74
2023-07-29T14:24:26.846Z,28.47
2023-07-29T14:26:54.705Z,28.73
2023-07-29T14:29:22.259Z,28.10
2023-07-29T14:31:50.101Z,28.16
2023-07-29T14:34:17.312Z,28.00
2023-07-29T14:36:44.895Z,28.36
2023-07-29T14:39:12.798Z,27.92
2023-07-29T14:41:40.886Z,27.73
2023-07-29T14:44:08.224Z,28.14
2023-07-29T14:46:36.134Z,28.56
2023-07-29T14:49:03.675Z,27.80
2023-07-29T14:51:31.274Z,27.90
2023-07-29T14:53:58.602Z,27.21
2023-07-29T14:56:26.261Z,27.20
2023-07-29T14:58:53.323Z,27.50
2023-07-29T15:01:20.871Z,27.51
2023-07-29T15:03:48.404Z,27.31
2023-07-29T15:06:16.003Z,27.68
2023-07-29T15:08:43.609Z,27.58
2023-07-29T15:11:11.117Z,27.34
2023-07-29T15:13:38.266Z,28.09
2023-07-29T15:16:06.500Z,27.80
2023-07-29T15:18:34.665Z,28.14
2023-07-29T15:21:03.468Z,28.62
2023-07-29T15:29:04.487Z,28.20
2023-07-29T15:31:32.254Z,27.76
2023-07-29T15:33:59.464Z,27.51
2023-07-29T15:36:27.172Z,27.37
2023-07-29T15:38:54.419Z,27.35
2023-07-29T15:41:22.481Z,27.24
2023-07-29T15:43:50.129Z,27.80
2023-07-29T15:46:17.667Z,27.75
2023-07-29T15:48:45.048Z,27.72
2023-07-29T15:51:12.643Z,27.47
2023-07-29T15:53:39.908Z,27.13
2023-07-29T15:56:07.535Z,26.90
2023-07-29T15:58:35.028Z,26.67
2023-07-29T16:01:04.656Z,26.71
2023-07-29T16:03:31.920Z,26.85
2023-07-29T16:05:59.447Z,26.97
2023-07-29T16:08:26.658Z,26.62
2023-07-29T16:10:54.720Z,26.64
2023-07-29T16:13:22.111Z,26.85
2023-07-29T16:15:49.520Z,26.65
2023-07-29T16:18:16.678Z,26.73
2023-07-29T16:20:44.183Z,26.35
2023-07-29T16:23:11.457Z,26.41
2023-07-29T16:25:39.145Z,26.11
2023-07-29T16:28:06.306Z,26.26
2023-07-29T16:30:34.142Z,26.23
2023-07-29T16:33:01.664Z,26.22
2023-07-29T16:35:29.212Z,25.86
2023-07-29T16:37:58.762Z,26.30
2023-07-29T16:40:26.844Z,26.16
2023-07-29T16:42:55.057Z,26.08
2023-07-29T16:45:24.081Z,25.86
2023-07-29T16:47:51.881Z,25.84
2023-07-29T16:50:19.512Z,25.77
2023-07-29T16:52:47.600Z,25.90
2023-07-29T16:55:15.134Z,25.73
2023-07-29T16:57:42.423Z,25.80
2023-07-29T17:00:10.363Z,25.70
2023-07-29T17:02:37.662Z,25.75
2023-07-29T17:05:07.601Z,25.52
2023-07-29T17:07:34.917Z,25.45
2023-07-29T17:10:02.661Z,25.53
2023-07-29T17:12:29.985Z,25.51
2023-07-29T17:14:57.466Z,25.41
2023-07-29T17:17:24.903Z,25.51
2023-07-29T17:19:52.655Z,25.21
2023-07-29T17:22:20.028Z,25.24
2023-07-29T17:24:47.642Z,25.09
2023-07-29T17:27:15.008Z,24.94
2023-07-29T17:29:43.397Z,25.02
2023-07-29T17:32:10.827Z,24.91
2023-07-29T17:34:38.453Z,24.48
2023-07-29T17:37:06.125Z,24.57
2023-07-29T17:39:33.640Z,24.21
2023-07-29T17:42:01.288Z,23.48
2023-07-29T17:44:29.111Z,23.01
2023-07-29T17:46:57.120Z,22.56
2023-07-29T17:49:24.760Z,22.77
2023-07-29T17:51:52.159Z,22.17
2023-07-29T17:54:19.625Z,21.92
2023-07-29T17:56:46.895Z,21.62
2023-07-29T17:59:14.488Z,21.17
2023-07-29T18:01:42.790Z,21.11
2023-07-29T18:04:10.263Z,21.30
2023-07-29T18:06:37.878Z,20.70
2023-07-29T18:09:05.710Z,20.72
2023-07-29T18:11:33.046Z,20.20
2023-07-29T18:14:00.757Z,20.34
2023-07-29T18:16:28.028Z,20.72
2023-07-29T18:18:55.571Z,20.73
2023-07-29T18:21:22.936Z,20.46
2023-07-29T18:23:50.701Z,20.35
2023-07-29T18:26:18.532Z,20.33
2023-07-29T18:28:46.886Z,20.38
2023-07-29T18:31:14.400Z,19.97
2023-07-29T18:33:42.531Z,20.06
2023-07-29T18:36:10.639Z,19.86
2023-07-29T18:38:39.779Z,20.22
2023-07-29T18:41:08.467Z,20.01
2023-07-29T18:43:37.296Z,20.26
2023-07-29T18:46:05.376Z,20.17
2023-07-29T18:49:24.740Z,19.96
2023-07-29T18:51:52.117Z,19.80
2023-07-29T18:54:20.115Z,19.98
2023-07-29T18:56:48.035Z,20.28
2023-07-29T18:59:20.055Z,20.00
2023-07-29T19:01:48.101Z,19.99
2023-07-29T19:04:15.915Z,20.21
2023-07-29T19:06:43.549Z,20.22
2023-07-29T19:09:11.675Z,19.90
2023-07-29T19:11:39.145Z,19.81
2023-07-29T19:14:07.063Z,19.40
2023-07-29T19:16:34.666Z,19.42
2023-07-29T19:19:03.901Z,19.37
2023-07-29T19:21:43.282Z,19.40
2023-07-29T19:24:36.761Z,19.43
2023-07-29T19:27:06.193Z,19.73
2023-07-29T19:29:35.991Z,19.81
2023-07-29T19:32:03.962Z,19.90
2023-07-29T19:34:31.962Z,20.05
2023-07-29T19:37:01.037Z,19.82
2023-07-29T19:39:29.320Z,19.95
2023-07-29T19:41:58.045Z,19.93
2023-07-29T19:44:26.252Z,19.76
2023-07-29T19:46:54.045Z,19.28
2023-07-29T19:49:22.214Z,18.99
2023-07-29T19:51:51.037Z,18.79
2023-07-29T19:54:20.114Z,18.79
2023-07-29T19:56:47.668Z,18.98
2023-07-29T19:59:15.674Z,19.17
2023-07-29T20:01:43.548Z,18.90
2023-07-29T20:04:12.223Z,19.14
2023-07-29T20:06:40.024Z,19.23
2023-07-29T20:09:08.528Z,18.91
2023-07-29T20:11:36.487Z,19.17
2023-07-29T20:14:05.673Z,19.18
2023-07-29T20:16:34.530Z,18.99
2023-07-29T20:19:02.672Z,18.95
2023-07-29T20:21:31.158Z,18.96
2023-07-29T20:24:01.918Z,19.07
2023-07-29T20:26:34.268Z,18.82
2023-07-29T20:29:03.067Z,18.81
2023-07-29T20:31:31.141Z,18.70
2023-07-29T20:34:04.283Z,18.59
2023-07-29T20:36:33.171Z,18.61
2023-07-29T20:39:01.825Z,18.66
2023-07-29T20:41:29.990Z,18.54
2023-07-29T20:43:58.655Z,18.74
2023-07-29T20:46:28.792Z,18.79
2023-07-29T20:48:56.923Z,18.98
2023-07-29T20:51:24.765Z,19.10
2023-07-29T20:53:53.354Z,19.12
2023-07-29T20:56:20.708Z,19.13
2023-07-29T20:58:49.182Z,18.99
2023-07-29T21:01:17.885Z,19.05
2023-07-29T21:03:46.587Z,18.81
2023-07-29T21:06:14.287Z,18.77
2023-07-29T21:08:42.396Z,18.96
2023-07-29T21:11:11.504Z,18.92
2023-07-29T21:13:40.136Z,18.81
2023-07-29T21:16:07.345Z,18.66
2023-07-29T21:18:35.338Z,18.81
2023-07-29T21:21:02.652Z,18.85
2023-07-29T21:23:31.231Z,18.75
2023-07-29T21:25:59.041Z,18.95
2023-07-29T21:28:27.084Z,18.89
2023-07-29T21:30:56.828Z,18.29
2023-07-29T21:33:25.014Z,18.28
2023-07-29T21:35:52.447Z,18.62
2023-07-29T21:40:55.403Z,18.50
2023-07-29T21:43:23.662Z,18.73
2023-07-29T21:45:51.429Z,18.73
2023-07-29T21:48:20.060Z,18.64
2023-07-29T21:50:50.722Z,18.61
2023-07-29T21:53:19.399Z,18.50
2023-07-29T21:55:48.083Z,18.58
2023-07-29T21:58:15.979Z,18.46
2023-07-29T22:00:43.321Z,18.40
2023-07-29T22:03:11.501Z,18.37
2023-07-29T22:05:39.752Z,18.50
2023-07-29T22:08:07.925Z,18.62
2023-07-29T22:10:40.052Z,18.64
2023-07-29T22:13:08.841Z,18.39
2023-07-29T22:15:37.316Z,18.55
2023-07-29T22:18:05.904Z,18.39
2023-07-29T22:20:33.301Z,18.50
2023-07-29T22:23:00.952Z,18.51
2023-07-29T22:25:28.510Z,18.58
2023-07-29T22:27:56.615Z,18.58
2023-07-29T22:30:26.520Z,18.51
2023-07-29T22:32:54.501Z,18.51
2023-07-29T22:35:22.185Z,18.44
2023-07-29T22:37:49.959Z,18.32
2023-07-29T22:40:18.401Z,18.50
2023-07-29T22:42:46.253Z,18.58
2023-07-29T22:45:13.665Z,18.47
2023-07-29T22:47:42.577Z,18.31
2023-07-29T22:50:10.334Z,18.33
2023-07-29T22:52:38.263Z,18.14
2023-07-29T22:55:06.834Z,18.05
2023-07-29T22:57:34.446Z,18.08
2023-07-29T23:00:01.925Z,18.24
2023-07-29T23:02:30.663Z,18.30
2023-07-29T23:04:58.191Z,18.30
2023-07-29T23:07:25.713Z,18.23
2023-07-29T23:09:52.975Z,18.08
2023-07-29T23:12:21.170Z,18.10
2023-07-29T23:14:48.976Z,18.11
2023-07-29T23:17:16.590Z,18.19
2023-07-29T23:19:43.723Z,18.33
2023-07-29T23:22:11.161Z,18.25
2023-07-29T23:24:38.452Z,18.21
2023-07-29T23:27:06.437Z,18.37
2023-07-29T23:29:33.598Z,18.24
2023-07-29T23:32:01.085Z,18.12
2023-07-29T23:34:28.319Z,18.32
2023-07-29T23:36:55.709Z,18.10
2023-07-29T23:39:22.851Z,18.11
2023-07-29T23:41:50.590Z,18.08
2023-07-29T23:44:17.791Z,18.12
2023-07-29T23:46:45.461Z,18.30
2023-07-29T23:49:12.710Z,18.23
2023-07-29T23:51:40.630Z,18.12
2023-07-29T23:54:08.212Z,18.04
2023-07-29T23:56:36.012Z,18.20
2023-07-29T23:59:03.167Z,18.05
